sensor_id;sensor_type;location;lat;lon;timestamp;temperature;humidity
8711;DHT22;4392;47.400;8.062;2023-01-05T00:01:15;10.90;99.90
8711;DHT22;4392;47.400;8.062;2023-01-05T00:03:44;10.90;99.90
8711;DHT22;4392;47.400;8.062;2023-01-05T00:06:12;10.90;99.90
8711;DHT22;4392;47.400;8.062;2023-01-05T00:08:39;10.90;99.90
8711;DHT22;4392;47.400;8.062;2023-01-05T00:11:12;10.90;99.90
8711;DHT22;4392;47.400;8.062;2023-01-05T00:13:57;10.90;99.90
8711;DHT22;4392;47.400;8.062;2023-01-05T00:16:42;10.90;99.90
8711;DHT22;4392;47.400;8.062;2023-01-05T00:19:27;10.90;99.90
8711;DHT22;4392;47.400;8.062;2023-01-05T00:22:23;11.00;99.90
8711;DHT22;4392;47.400;8.062;2023-01-05T00:24:56;11.00;99.90
8711;DHT22;4392;47.400;8.062;2023-01-05T00:27:21;11.00;99.90
8711;DHT22;4392;47.400;8.062;2023-01-05T00:29:47;11.00;99.90
8711;DHT22;4392;47.400;8.062;2023-01-05T00:32:15;11.00;99.90
8711;DHT22;4392;47.400;8.062;2023-01-05T00:34:41;11.00;99.90
8711;DHT22;4392;47.400;8.062;2023-01-05T00:37:06;10.90;99.90
8711;DHT22;4392;47.400;8.062;2023-01-05T00:39:32;10.90;99.90
8711;DHT22;4392;47.400;8.062;2023-01-05T00:41:58;10.90;99.90
8711;DHT22;4392;47.400;8.062;2023-01-05T00:44:24;10.90;99.90
8711;DHT22;4392;47.400;8.062;2023-01-05T00:46:51;10.80;99.90
8711;DHT22;4392;47.400;8.062;2023-01-05T00:49:16;10.80;99.90
8711;DHT22;4392;47.400;8.062;2023-01-05T00:51:42;10.80;99.90
8711;DHT22;4392;47.400;8.062;2023-01-05T00:54:11;10.80;99.90
8711;DHT22;4392;47.400;8.062;2023-01-05T00:56:36;10.80;99.90
8711;DHT22;4392;47.400;8.062;2023-01-05T00:59:02;10.80;99.90
8711;DHT22;4392;47.400;8.062;2023-01-05T01:01:30;10.80;99.90
8711;DHT22;4392;47.400;8.062;2023-01-05T01:03:56;10.70;99.90
8711;DHT22;4392;47.400;8.062;2023-01-05T01:06:22;10.80;99.90
8711;DHT22;4392;47.400;8.062;2023-01-05T01:08:48;10.80;99.90
8711;DHT22;4392;47.400;8.062;2023-01-05T01:11:15;10.80;99.90
8711;DHT22;4392;47.400;8.062;2023-01-05T01:13:44;10.80;99.90
8711;DHT22;4392;47.400;8.062;2023-01-05T01:16:12;10.80;99.90
8711;DHT22;4392;47.400;8.062;2023-01-05T01:18:39;10.70;99.90
8711;DHT22;4392;47.400;8.062;2023-01-05T01:21:08;10.70;99.90
8711;DHT22;4392;47.400;8.062;2023-01-05T01:23:34;10.70;99.90
8711;DHT22;4392;47.400;8.062;2023-01-05T01:26:06;10.70;99.90
8711;DHT22;4392;47.400;8.062;2023-01-05T01:28:32;10.70;99.90
8711;DHT22;4392;47.400;8.062;2023-01-05T01:31:01;10.70;99.90
8711;DHT22;4392;47.400;8.062;2023-01-05T01:33:27;10.70;99.90
8711;DHT22;4392;47.400;8.062;2023-01-05T01:35:54;10.70;99.90
8711;DHT22;4392;47.400;8.062;2023-01-05T01:38:20;10.80;99.90
8711;DHT22;4392;47.400;8.062;2023-01-05T01:40:49;10.80;99.90
8711;DHT22;4392;47.400;8.062;2023-01-05T01:46:06;10.70;99.90
8711;DHT22;4392;47.400;8.062;2023-01-05T01:48:33;10.80;99.90
8711;DHT22;4392;47.400;8.062;2023-01-05T01:51:02;10.70;99.90
8711;DHT22;4392;47.400;8.062;2023-01-05T01:53:42;10.70;99.90
8711;DHT22;4392;47.400;8.062;2023-01-05T01:56:12;10.70;99.90
8711;DHT22;4392;47.400;8.062;2023-01-05T01:58:39;10.80;99.90
8711;DHT22;4392;47.400;8.062;2023-01-05T02:01:05;10.80;99.90
8711;DHT22;4392;47.400;8.062;2023-01-05T02:03:31;10.80;99.90
8711;DHT22;4392;47.400;8.062;2023-01-05T02:05:59;10.70;99.90
8711;DHT22;4392;47.400;8.062;2023-01-05T02:08:25;10.70;99.90
8711;DHT22;4392;47.400;8.062;2023-01-05T02:24:41;10.90;99.90
8711;DHT22;4392;47.400;8.062;2023-01-05T02:42:02;13.40;99.90
8711;DHT22;4392;47.400;8.062;2023-01-05T02:44:32;13.50;99.90
8711;DHT22;4392;47.400;8.062;2023-01-05T02:47:04;13.60;99.90
8711;DHT22;4392;47.400;8.062;2023-01-05T02:49:34;13.60;99.90
8711;DHT22;4392;47.400;8.062;2023-01-05T02:52:02;13.80;99.90
8711;DHT22;4392;47.400;8.062;2023-01-05T02:54:43;13.80;99.90
8711;DHT22;4392;47.400;8.062;2023-01-05T02:57:16;13.90;99.90
8711;DHT22;4392;47.400;8.062;2023-01-05T02:59:46;14.00;99.90
8711;DHT22;4392;47.400;8.062;2023-01-05T03:02:31;13.90;99.90
8711;DHT22;4392;47.400;8.062;2023-01-05T03:05:03;13.80;99.90
8711;DHT22;4392;47.400;8.062;2023-01-05T03:07:33;13.90;99.90
8711;DHT22;4392;47.400;8.062;2023-01-05T03:10:01;14.10;99.90
8711;DHT22;4392;47.400;8.062;2023-01-05T03:12:49;14.00;99.90
8711;DHT22;4392;47.400;8.062;2023-01-05T03:15:37;13.70;99.90
8711;DHT22;4392;47.400;8.062;2023-01-05T03:18:13;13.80;99.90
8711;DHT22;4392;47.400;8.062;2023-01-05T03:20:43;13.80;99.90
8711;DHT22;4392;47.400;8.062;2023-01-05T03:23:11;14.10;99.90
8711;DHT22;4392;47.400;8.062;2023-01-05T03:25:56;14.20;99.90
8711;DHT22;4392;47.400;8.062;2023-01-05T03:28:58;14.20;99.90
8711;DHT22;4392;47.400;8.062;2023-01-05T03:31:48;14.20;99.90
8711;DHT22;4392;47.400;8.062;2023-01-05T03:34:50;14.40;99.90
8711;DHT22;4392;47.400;8.062;2023-01-05T03:37:39;14.30;99.90
8711;DHT22;4392;47.400;8.062;2023-01-05T03:40:13;14.30;99.90
8711;DHT22;4392;47.400;8.062;2023-01-05T03:42:42;14.40;99.90
8711;DHT22;4392;47.400;8.062;2023-01-05T03:45:09;14.40;99.90
8711;DHT22;4392;47.400;8.062;2023-01-05T03:47:37;14.40;99.90
8711;DHT22;4392;47.400;8.062;2023-01-05T03:50:03;14.40;99.90
8711;DHT22;4392;47.400;8.062;2023-01-05T03:52:29;14.50;99.90
8711;DHT22;4392;47.400;8.062;2023-01-05T03:54:55;14.50;99.90
8711;DHT22;4392;47.400;8.062;2023-01-05T03:57:21;14.50;99.90
8711;DHT22;4392;47.400;8.062;2023-01-05T03:59:46;14.50;99.90
8711;DHT22;4392;47.400;8.062;2023-01-05T04:02:12;14.60;99.90
8711;DHT22;4392;47.400;8.062;2023-01-05T04:04:38;14.60;99.90
8711;DHT22;4392;47.400;8.062;2023-01-05T04:07:04;14.60;99.90
8711;DHT22;4392;47.400;8.062;2023-01-05T04:09:31;14.60;99.90
8711;DHT22;4392;47.400;8.062;2023-01-05T04:11:59;14.40;99.90
8711;DHT22;4392;47.400;8.062;2023-01-05T04:14:25;14.50;99.90
8711;DHT22;4392;47.400;8.062;2023-01-05T04:16:50;14.30;99.90
8711;DHT22;4392;47.400;8.062;2023-01-05T04:19:16;13.70;99.90
8711;DHT22;4392;47.400;8.062;2023-01-05T04:21:42;13.30;99.90
8711;DHT22;4392;47.400;8.062;2023-01-05T04:24:11;13.10;99.90
8711;DHT22;4392;47.400;8.062;2023-01-05T04:26:37;12.90;99.90
8711;DHT22;4392;47.400;8.062;2023-01-05T04:29:04;12.80;99.90
8711;DHT22;4392;47.400;8.062;2023-01-05T04:31:30;12.70;99.90
8711;DHT22;4392;47.400;8.062;2023-01-05T04:33:58;12.60;99.90
8711;DHT22;4392;47.400;8.062;2023-01-05T04:36:26;12.50;99.90
8711;DHT22;4392;47.400;8.062;2023-01-05T04:38:57;12.40;99.90
8711;DHT22;4392;47.400;8.062;2023-01-05T04:41:23;12.30;99.90
8711;DHT22;4392;47.400;8.062;2023-01-05T04:43:49;12.30;99.90
8711;DHT22;4392;47.400;8.062;2023-01-05T04:46:16;12.20;99.90
8711;DHT22;4392;47.400;8.062;2023-01-05T04:48:42;12.20;99.90
8711;DHT22;4392;47.400;8.062;2023-01-05T04:51:08;12.20;99.90
8711;DHT22;4392;47.400;8.062;2023-01-05T04:53:33;12.00;99.90
8711;DHT22;4392;47.400;8.062;2023-01-05T04:55:59;12.10;99.90
8711;DHT22;4392;47.400;8.062;2023-01-05T04:58:25;12.10;99.90
8711;DHT22;4392;47.400;8.062;2023-01-05T05:00:53;12.10;99.90
8711;DHT22;4392;47.400;8.062;2023-01-05T05:03:19;11.90;99.90
8711;DHT22;4392;47.400;8.062;2023-01-05T05:05:44;11.80;99.90
8711;DHT22;4392;47.400;8.062;2023-01-05T05:08:12;12.00;99.90
8711;DHT22;4392;47.400;8.062;2023-01-05T05:10:38;12.00;99.90
8711;DHT22;4392;47.400;8.062;2023-01-05T05:13:04;11.90;99.90
8711;DHT22;4392;47.400;8.062;2023-01-05T05:15:31;11.80;99.90
8711;DHT22;4392;47.400;8.062;2023-01-05T05:17:57;11.90;99.90
8711;DHT22;4392;47.400;8.062;2023-01-05T05:20:22;11.90;99.90
8711;DHT22;4392;47.400;8.062;2023-01-05T05:22:48;11.90;99.90
8711;DHT22;4392;47.400;8.062;2023-01-05T05:25:14;11.90;99.90
8711;DHT22;4392;47.400;8.062;2023-01-05T05:27:40;11.80;99.90
8711;DHT22;4392;47.400;8.062;2023-01-05T05:30:06;11.90;99.90
8711;DHT22;4392;47.400;8.062;2023-01-05T05:32:32;11.90;99.90
8711;DHT22;4392;47.400;8.062;2023-01-05T05:34:57;11.90;99.90
8711;DHT22;4392;47.400;8.062;2023-01-05T05:37:23;11.70;99.90
8711;DHT22;4392;47.400;8.062;2023-01-05T05:39:51;11.70;99.90
8711;DHT22;4392;47.400;8.062;2023-01-05T05:42:17;11.80;99.90
8711;DHT22;4392;47.400;8.062;2023-01-05T05:44:43;11.70;99.90
8711;DHT22;4392;47.400;8.062;2023-01-05T05:47:09;11.60;99.90
8711;DHT22;4392;47.400;8.062;2023-01-05T05:49:37;11.60;99.90
8711;DHT22;4392;47.400;8.062;2023-01-05T05:52:02;11.60;99.90
8711;DHT22;4392;47.400;8.062;2023-01-05T05:54:29;11.60;99.90
8711;DHT22;4392;47.400;8.062;2023-01-05T05:56:55;11.60;99.90
8711;DHT22;4392;47.400;8.062;2023-01-05T05:59:20;11.60;99.90
8711;DHT22;4392;47.400;8.062;2023-01-05T06:01:48;11.60;99.90
8711;DHT22;4392;47.400;8.062;2023-01-05T06:04:14;11.70;99.90
8711;DHT22;4392;47.400;8.062;2023-01-05T06:06:40;11.60;99.90
8711;DHT22;4392;47.400;8.062;2023-01-05T06:09:05;11.60;99.90
8711;DHT22;4392;47.400;8.062;2023-01-05T06:11:31;11.60;99.90
8711;DHT22;4392;47.400;8.062;2023-01-05T06:13:57;11.50;99.90
8711;DHT22;4392;47.400;8.062;2023-01-05T06:16:22;11.50;99.90
8711;DHT22;4392;47.400;8.062;2023-01-05T06:18:48;11.30;99.90
8711;DHT22;4392;47.400;8.062;2023-01-05T06:21:14;11.30;99.90
8711;DHT22;4392;47.400;8.062;2023-01-05T06:23:42;11.30;99.90
8711;DHT22;4392;47.400;8.062;2023-01-05T06:26:08;11.30;99.90
8711;DHT22;4392;47.400;8.062;2023-01-05T06:28:33;11.30;99.90
8711;DHT22;4392;47.400;8.062;2023-01-05T06:30:59;11.30;99.90
8711;DHT22;4392;47.400;8.062;2023-01-05T06:33:25;11.20;99.90
8711;DHT22;4392;47.400;8.062;2023-01-05T06:35:50;11.20;99.90
8711;DHT22;4392;47.400;8.062;2023-01-05T06:38:16;11.20;99.90
8711;DHT22;4392;47.400;8.062;2023-01-05T06:40:45;11.20;99.90
8711;DHT22;4392;47.400;8.062;2023-01-05T06:43:11;11.20;99.90
8711;DHT22;4392;47.400;8.062;2023-01-05T06:45:37;11.20;99.90
8711;DHT22;4392;47.400;8.062;2023-01-05T06:48:03;11.20;99.90
8711;DHT22;4392;47.400;8.062;2023-01-05T06:50:29;11.20;99.90
8711;DHT22;4392;47.400;8.062;2023-01-05T06:52:56;11.20;99.90
8711;DHT22;4392;47.400;8.062;2023-01-05T06:55:22;11.20;99.90
8711;DHT22;4392;47.400;8.062;2023-01-05T06:57:48;11.20;99.90
8711;DHT22;4392;47.400;8.062;2023-01-05T07:00:14;11.20;99.90
8711;DHT22;4392;47.400;8.062;2023-01-05T07:02:40;11.30;99.90
8711;DHT22;4392;47.400;8.062;2023-01-05T07:05:07;11.20;99.90
8711;DHT22;4392;47.400;8.062;2023-01-05T07:07:33;11.10;99.90
8711;DHT22;4392;47.400;8.062;2023-01-05T07:09:58;11.00;99.90
8711;DHT22;4392;47.400;8.062;2023-01-05T07:12:24;10.90;99.90
8711;DHT22;4392;47.400;8.062;2023-01-05T07:14:50;11.00;99.90
8711;DHT22;4392;47.400;8.062;2023-01-05T07:17:16;11.00;99.90
8711;DHT22;4392;47.400;8.062;2023-01-05T07:19:42;11.10;99.90
8711;DHT22;4392;47.400;8.062;2023-01-05T07:22:08;11.00;99.90
8711;DHT22;4392;47.400;8.062;2023-01-05T07:24:34;10.90;99.90
8711;DHT22;4392;47.400;8.062;2023-01-05T07:27:00;10.60;99.90
8711;DHT22;4392;47.400;8.062;2023-01-05T07:29:26;10.70;99.90
8711;DHT22;4392;47.400;8.062;2023-01-05T07:31:51;10.70;99.90
8711;DHT22;4392;47.400;8.062;2023-01-05T07:34:18;10.80;99.90
8711;DHT22;4392;47.400;8.062;2023-01-05T07:36:44;10.90;99.90
8711;DHT22;4392;47.400;8.062;2023-01-05T07:39:10;11.10;99.90
8711;DHT22;4392;47.400;8.062;2023-01-05T07:41:35;11.00;99.90
8711;DHT22;4392;47.400;8.062;2023-01-05T07:44:01;10.90;99.90
8711;DHT22;4392;47.400;8.062;2023-01-05T07:46:27;11.00;99.90
8711;DHT22;4392;47.400;8.062;2023-01-05T07:48:53;10.90;99.90
8711;DHT22;4392;47.400;8.062;2023-01-05T07:51:19;10.90;99.90
8711;DHT22;4392;47.400;8.062;2023-01-05T07:53:49;10.90;99.90
8711;DHT22;4392;47.400;8.062;2023-01-05T07:56:14;10.90;99.90
8711;DHT22;4392;47.400;8.062;2023-01-05T07:58:40;11.00;99.90
8711;DHT22;4392;47.400;8.062;2023-01-05T08:01:10;11.00;99.90
8711;DHT22;4392;47.400;8.062;2023-01-05T08:03:37;11.00;99.90
8711;DHT22;4392;47.400;8.062;2023-01-05T08:06:14;11.00;99.90
8711;DHT22;4392;47.400;8.062;2023-01-05T08:08:40;11.00;99.90
8711;DHT22;4392;47.400;8.062;2023-01-05T08:11:08;11.10;99.90
8711;DHT22;4392;47.400;8.062;2023-01-05T08:13:34;11.10;99.90
8711;DHT22;4392;47.400;8.062;2023-01-05T08:16:18;11.10;99.90
8711;DHT22;4392;47.400;8.062;2023-01-05T08:18:44;11.10;99.90
8711;DHT22;4392;47.400;8.062;2023-01-05T08:21:10;11.10;99.90
8711;DHT22;4392;47.400;8.062;2023-01-05T08:23:37;11.00;99.90
8711;DHT22;4392;47.400;8.062;2023-01-05T08:26:05;11.00;99.90
8711;DHT22;4392;47.400;8.062;2023-01-05T08:28:34;11.10;99.90
8711;DHT22;4392;47.400;8.062;2023-01-05T08:31:05;11.00;99.90
8711;DHT22;4392;47.400;8.062;2023-01-05T08:33:32;11.10;99.90
8711;DHT22;4392;47.400;8.062;2023-01-05T08:35:58;11.10;99.90
8711;DHT22;4392;47.400;8.062;2023-01-05T08:38:26;11.10;99.90
8711;DHT22;4392;47.400;8.062;2023-01-05T08:40:52;11.10;99.90
8711;DHT22;4392;47.400;8.062;2023-01-05T08:43:18;11.10;99.90
8711;DHT22;4392;47.400;8.062;2023-01-05T08:45:48;11.00;99.90
8711;DHT22;4392;47.400;8.062;2023-01-05T08:48:17;11.00;99.90
8711;DHT22;4392;47.400;8.062;2023-01-05T08:50:42;11.00;99.90
8711;DHT22;4392;47.400;8.062;2023-01-05T08:53:08;10.90;99.90
8711;DHT22;4392;47.400;8.062;2023-01-05T08:55:34;10.90;99.90
8711;DHT22;4392;47.400;8.062;2023-01-05T08:58:00;10.80;99.90
8711;DHT22;4392;47.400;8.062;2023-01-05T09:00:26;10.90;99.90
8711;DHT22;4392;47.400;8.062;2023-01-05T09:02:51;11.00;99.90
8711;DHT22;4392;47.400;8.062;2023-01-05T09:05:17;10.90;99.90
8711;DHT22;4392;47.400;8.062;2023-01-05T09:07:45;11.00;99.90
8711;DHT22;4392;47.400;8.062;2023-01-05T09:10:11;11.00;99.90
8711;DHT22;4392;47.400;8.062;2023-01-05T09:12:37;11.10;99.90
8711;DHT22;4392;47.400;8.062;2023-01-05T09:15:04;11.10;99.90
8711;DHT22;4392;47.400;8.062;2023-01-05T09:17:31;11.10;99.90
8711;DHT22;4392;47.400;8.062;2023-01-05T09:19:57;11.00;99.90
8711;DHT22;4392;47.400;8.062;2023-01-05T09:22:29;11.00;99.90
8711;DHT22;4392;47.400;8.062;2023-01-05T09:24:54;11.00;99.90
8711;DHT22;4392;47.400;8.062;2023-01-05T09:27:20;11.00;99.90
8711;DHT22;4392;47.400;8.062;2023-01-05T09:29:48;11.20;99.90
8711;DHT22;4392;47.400;8.062;2023-01-05T09:32:14;11.20;99.90
8711;DHT22;4392;47.400;8.062;2023-01-05T09:34:41;11.30;99.90
8711;DHT22;4392;47.400;8.062;2023-01-05T09:37:07;11.30;99.90
8711;DHT22;4392;47.400;8.062;2023-01-05T09:39:33;11.20;99.90
8711;DHT22;4392;47.400;8.062;2023-01-05T09:42:06;11.20;99.90
8711;DHT22;4392;47.400;8.062;2023-01-05T09:44:38;11.20;99.90
8711;DHT22;4392;47.400;8.062;2023-01-05T09:49:57;11.30;99.90
8711;DHT22;4392;47.400;8.062;2023-01-05T09:52:25;11.20;99.90
8711;DHT22;4392;47.400;8.062;2023-01-05T09:54:51;11.20;99.90
8711;DHT22;4392;47.400;8.062;2023-01-05T09:57:24;11.30;99.90
8711;DHT22;4392;47.400;8.062;2023-01-05T09:59:53;11.30;99.90
8711;DHT22;4392;47.400;8.062;2023-01-05T10:03:02;11.30;99.90
8711;DHT22;4392;47.400;8.062;2023-01-05T10:05:31;11.30;99.90
8711;DHT22;4392;47.400;8.062;2023-01-05T10:08:03;11.30;99.90
8711;DHT22;4392;47.400;8.062;2023-01-05T10:10:51;11.40;99.90
8711;DHT22;4392;47.400;8.062;2023-01-05T10:13:41;11.40;99.90
8711;DHT22;4392;47.400;8.062;2023-01-05T10:16:15;11.40;99.90
8711;DHT22;4392;47.400;8.062;2023-01-05T10:18:41;11.60;99.90
8711;DHT22;4392;47.400;8.062;2023-01-05T10:24:18;11.60;99.90
8711;DHT22;4392;47.400;8.062;2023-01-05T10:27:02;11.60;99.90
8711;DHT22;4392;47.400;8.062;2023-01-05T10:32:39;11.60;99.90
8711;DHT22;4392;47.400;8.062;2023-01-05T10:45:27;11.70;99.90
8711;DHT22;4392;47.400;8.062;2023-01-05T10:47:53;11.60;99.90
8711;DHT22;4392;47.400;8.062;2023-01-05T10:50:40;11.60;99.90
8711;DHT22;4392;47.400;8.062;2023-01-05T10:53:22;11.60;99.90
8711;DHT22;4392;47.400;8.062;2023-01-05T10:56:25;11.60;99.90
8711;DHT22;4392;47.400;8.062;2023-01-05T10:59:21;11.60;99.90
8711;DHT22;4392;47.400;8.062;2023-01-05T11:01:48;11.70;99.90
8711;DHT22;4392;47.400;8.062;2023-01-05T11:04:20;11.70;99.90
8711;DHT22;4392;47.400;8.062;2023-01-05T11:06:48;11.50;99.90
8711;DHT22;4392;47.400;8.062;2023-01-05T11:09:19;11.60;99.90
8711;DHT22;4392;47.400;8.062;2023-01-05T11:11:58;11.60;99.90
8711;DHT22;4392;47.400;8.062;2023-01-05T11:14:26;11.60;99.90
8711;DHT22;4392;47.400;8.062;2023-01-05T11:16:54;11.60;99.90
8711;DHT22;4392;47.400;8.062;2023-01-05T11:19:30;11.70;99.90
8711;DHT22;4392;47.400;8.062;2023-01-05T11:21:56;11.80;99.90
8711;DHT22;4392;47.400;8.062;2023-01-05T11:24:33;11.80;99.90
8711;DHT22;4392;47.400;8.062;2023-01-05T11:27:22;11.80;99.90
8711;DHT22;4392;47.400;8.062;2023-01-05T11:30:24;11.80;99.90
8711;DHT22;4392;47.400;8.062;2023-01-05T11:32:50;11.70;99.90
8711;DHT22;4392;47.400;8.062;2023-01-05T11:35:27;11.70;99.90
8711;DHT22;4392;47.400;8.062;2023-01-05T11:37:57;11.70;99.90
8711;DHT22;4392;47.400;8.062;2023-01-05T11:40:35;11.70;99.90
8711;DHT22;4392;47.400;8.062;2023-01-05T11:43:09;11.70;99.90
8711;DHT22;4392;47.400;8.062;2023-01-05T11:45:51;11.70;99.90
8711;DHT22;4392;47.400;8.062;2023-01-05T11:48:26;12.80;99.90
8711;DHT22;4392;47.400;8.062;2023-01-05T11:50:55;13.30;99.90
8711;DHT22;4392;47.400;8.062;2023-01-05T11:53:34;13.50;99.90
8711;DHT22;4392;47.400;8.062;2023-01-05T11:56:20;13.70;99.90
8711;DHT22;4392;47.400;8.062;2023-01-05T11:58:48;13.80;99.90
8711;DHT22;4392;47.400;8.062;2023-01-05T12:04:14;14.20;99.90
8711;DHT22;4392;47.400;8.062;2023-01-05T12:09:36;14.10;99.90
8711;DHT22;4392;47.400;8.062;2023-01-05T12:43:01;14.90;99.90
8711;DHT22;4392;47.400;8.062;2023-01-05T12:48:18;14.80;99.90
8711;DHT22;4392;47.400;8.062;2023-01-05T12:50:47;14.90;99.90
8711;DHT22;4392;47.400;8.062;2023-01-05T12:55:55;15.00;99.90
8711;DHT22;4392;47.400;8.062;2023-01-05T12:58:35;15.10;99.90
8711;DHT22;4392;47.400;8.062;2023-01-05T13:01:05;15.20;99.90
8711;DHT22;4392;47.400;8.062;2023-01-05T13:03:54;15.10;99.90
8711;DHT22;4392;47.400;8.062;2023-01-05T13:06:22;15.40;99.90
8711;DHT22;4392;47.400;8.062;2023-01-05T13:09:09;15.50;99.90
8711;DHT22;4392;47.400;8.062;2023-01-05T13:17:03;15.40;99.90
8711;DHT22;4392;47.400;8.062;2023-01-05T13:19:35;15.40;99.90
8711;DHT22;4392;47.400;8.062;2023-01-05T13:22:05;15.50;99.90
8711;DHT22;4392;47.400;8.062;2023-01-05T13:24:39;15.50;99.90
8711;DHT22;4392;47.400;8.062;2023-01-05T13:27:11;15.50;99.90
8711;DHT22;4392;47.400;8.062;2023-01-05T13:29:45;15.50;99.90
8711;DHT22;4392;47.400;8.062;2023-01-05T13:32:27;15.10;99.90
8711;DHT22;4392;47.400;8.062;2023-01-05T13:35:20;14.70;99.90
8711;DHT22;4392;47.400;8.062;2023-01-05T13:55:16;14.10;99.90
8711;DHT22;4392;47.400;8.062;2023-01-05T13:57:46;14.00;99.90
8711;DHT22;4392;47.400;8.062;2023-01-05T14:00:27;14.00;99.90
8711;DHT22;4392;47.400;8.062;2023-01-05T14:05:51;13.90;99.90
8711;DHT22;4392;47.400;8.062;2023-01-05T14:22:31;13.30;99.90
8711;DHT22;4392;47.400;8.062;2023-01-05T14:25:22;13.40;99.90
8711;DHT22;4392;47.400;8.062;2023-01-05T14:30:51;13.30;99.90
8711;DHT22;4392;47.400;8.062;2023-01-05T14:39:41;13.20;99.90
8711;DHT22;4392;47.400;8.062;2023-01-05T14:42:18;13.10;99.90
8711;DHT22;4392;47.400;8.062;2023-01-05T14:45:04;13.10;99.90
8711;DHT22;4392;47.400;8.062;2023-01-05T14:47:38;13.10;99.90
8711;DHT22;4392;47.400;8.062;2023-01-05T14:50:12;13.10;99.90
8711;DHT22;4392;47.400;8.062;2023-01-05T14:55:40;13.10;99.90
8711;DHT22;4392;47.400;8.062;2023-01-05T14:58:12;13.10;99.90
8711;DHT22;4392;47.400;8.062;2023-01-05T15:00:52;13.10;99.90
8711;DHT22;4392;47.400;8.062;2023-01-05T15:03:28;13.00;99.90
8711;DHT22;4392;47.400;8.062;2023-01-05T15:06:11;13.00;99.90
8711;DHT22;4392;47.400;8.062;2023-01-05T15:11:44;12.90;99.90
8711;DHT22;4392;47.400;8.062;2023-01-05T15:20:24;13.00;99.90
8711;DHT22;4392;47.400;8.062;2023-01-05T15:30:55;12.80;99.90
8711;DHT22;4392;47.400;8.062;2023-01-05T15:33:35;12.80;99.90
8711;DHT22;4392;47.400;8.062;2023-01-05T15:36:11;12.80;99.90
8711;DHT22;4392;47.400;8.062;2023-01-05T15:38:45;12.90;99.90
8711;DHT22;4392;47.400;8.062;2023-01-05T15:41:13;12.90;99.90
8711;DHT22;4392;47.400;8.062;2023-01-05T15:43:42;12.90;99.90
8711;DHT22;4392;47.400;8.062;2023-01-05T15:46:09;12.90;99.90
8711;DHT22;4392;47.400;8.062;2023-01-05T15:48:42;13.00;99.90
8711;DHT22;4392;47.400;8.062;2023-01-05T15:51:10;13.00;99.90
8711;DHT22;4392;47.400;8.062;2023-01-05T15:53:55;13.00;99.90
8711;DHT22;4392;47.400;8.062;2023-01-05T15:56:34;12.90;99.90
8711;DHT22;4392;47.400;8.062;2023-01-05T15:59:01;13.00;99.90
8711;DHT22;4392;47.400;8.062;2023-01-05T16:01:28;13.00;99.90
8711;DHT22;4392;47.400;8.062;2023-01-05T16:04:06;13.00;99.90
8711;DHT22;4392;47.400;8.062;2023-01-05T16:06:33;13.00;99.90
8711;DHT22;4392;47.400;8.062;2023-01-05T16:09:16;12.90;99.90
8711;DHT22;4392;47.400;8.062;2023-01-05T16:11:44;12.80;99.90
8711;DHT22;4392;47.400;8.062;2023-01-05T16:14:19;12.80;99.90
8711;DHT22;4392;47.400;8.062;2023-01-05T16:16:52;12.80;99.90
8711;DHT22;4392;47.400;8.062;2023-01-05T16:19:39;12.90;99.90
8711;DHT22;4392;47.400;8.062;2023-01-05T16:22:30;12.90;99.90
8711;DHT22;4392;47.400;8.062;2023-01-05T16:27:28;12.80;99.90
8711;DHT22;4392;47.400;8.062;2023-01-05T16:29:54;12.70;99.90
8711;DHT22;4392;47.400;8.062;2023-01-05T16:32:37;12.60;99.90
8711;DHT22;4392;47.400;8.062;2023-01-05T16:41:40;12.70;99.90
8711;DHT22;4392;47.400;8.062;2023-01-05T16:44:09;12.70;99.90
8711;DHT22;4392;47.400;8.062;2023-01-05T16:46:38;12.70;99.90
8711;DHT22;4392;47.400;8.062;2023-01-05T16:49:23;12.70;99.90
8711;DHT22;4392;47.400;8.062;2023-01-05T16:51:50;12.60;99.90
8711;DHT22;4392;47.400;8.062;2023-01-05T16:54:24;12.70;99.90
8711;DHT22;4392;47.400;8.062;2023-01-05T16:56:59;12.60;99.90
8711;DHT22;4392;47.400;8.062;2023-01-05T17:05:00;12.40;99.90
8711;DHT22;4392;47.400;8.062;2023-01-05T17:07:26;12.50;99.90
8711;DHT22;4392;47.400;8.062;2023-01-05T17:09:53;12.50;99.90
8711;DHT22;4392;47.400;8.062;2023-01-05T17:12:19;12.40;99.90
8711;DHT22;4392;47.400;8.062;2023-01-05T17:14:45;12.40;99.90
8711;DHT22;4392;47.400;8.062;2023-01-05T17:17:12;12.50;99.90
8711;DHT22;4392;47.400;8.062;2023-01-05T17:19:38;12.50;99.90
8711;DHT22;4392;47.400;8.062;2023-01-05T17:22:07;12.40;99.90
8711;DHT22;4392;47.400;8.062;2023-01-05T17:24:34;12.40;99.90
8711;DHT22;4392;47.400;8.062;2023-01-05T17:27:01;12.30;99.90
8711;DHT22;4392;47.400;8.062;2023-01-05T17:29:28;12.40;99.90
8711;DHT22;4392;47.400;8.062;2023-01-05T17:31:54;12.40;99.90
8711;DHT22;4392;47.400;8.062;2023-01-05T17:34:21;12.30;99.90
8711;DHT22;4392;47.400;8.062;2023-01-05T17:36:48;12.30;99.90
8711;DHT22;4392;47.400;8.062;2023-01-05T17:39:20;12.30;99.90
8711;DHT22;4392;47.400;8.062;2023-01-05T17:41:46;12.20;99.90
8711;DHT22;4392;47.400;8.062;2023-01-05T17:44:14;12.20;99.90
8711;DHT22;4392;47.400;8.062;2023-01-05T17:46:44;12.30;99.90
8711;DHT22;4392;47.400;8.062;2023-01-05T17:49:18;12.30;99.90
8711;DHT22;4392;47.400;8.062;2023-01-05T17:51:44;12.20;99.90
8711;DHT22;4392;47.400;8.062;2023-01-05T17:54:10;12.20;99.90
8711;DHT22;4392;47.400;8.062;2023-01-05T17:56:37;12.20;99.90
8711;DHT22;4392;47.400;8.062;2023-01-05T17:59:03;12.20;99.90
8711;DHT22;4392;47.400;8.062;2023-01-05T18:01:30;12.10;99.90
8711;DHT22;4392;47.400;8.062;2023-01-05T18:03:58;12.20;99.90
8711;DHT22;4392;47.400;8.062;2023-01-05T18:06:23;12.20;99.90
8711;DHT22;4392;47.400;8.062;2023-01-05T18:08:50;12.20;99.90
8711;DHT22;4392;47.400;8.062;2023-01-05T18:11:15;12.10;99.90
8711;DHT22;4392;47.400;8.062;2023-01-05T18:13:41;12.10;99.90
8711;DHT22;4392;47.400;8.062;2023-01-05T18:16:09;12.20;99.90
8711;DHT22;4392;47.400;8.062;2023-01-05T18:18:35;12.20;99.90
8711;DHT22;4392;47.400;8.062;2023-01-05T18:21:02;12.30;99.90
8711;DHT22;4392;47.400;8.062;2023-01-05T18:23:30;12.20;99.90
8711;DHT22;4392;47.400;8.062;2023-01-05T18:26:07;12.10;99.90
8711;DHT22;4392;47.400;8.062;2023-01-05T18:28:33;12.00;99.90
8711;DHT22;4392;47.400;8.062;2023-01-05T18:30:59;12.10;99.90
8711;DHT22;4392;47.400;8.062;2023-01-05T18:33:25;12.00;99.90
8711;DHT22;4392;47.400;8.062;2023-01-05T18:35:52;12.00;99.90
8711;DHT22;4392;47.400;8.062;2023-01-05T18:38:18;12.00;99.90
8711;DHT22;4392;47.400;8.062;2023-01-05T18:40:48;12.00;99.90
8711;DHT22;4392;47.400;8.062;2023-01-05T18:43:14;12.00;99.90
8711;DHT22;4392;47.400;8.062;2023-01-05T18:45:40;11.90;99.90
8711;DHT22;4392;47.400;8.062;2023-01-05T18:48:06;11.90;99.90
8711;DHT22;4392;47.400;8.062;2023-01-05T18:50:32;11.90;99.90
8711;DHT22;4392;47.400;8.062;2023-01-05T18:52:58;11.80;99.90
8711;DHT22;4392;47.400;8.062;2023-01-05T18:55:24;11.80;99.90
8711;DHT22;4392;47.400;8.062;2023-01-05T18:57:49;11.70;99.90
8711;DHT22;4392;47.400;8.062;2023-01-05T19:00:15;11.70;99.90
8711;DHT22;4392;47.400;8.062;2023-01-05T19:02:41;11.70;99.90
8711;DHT22;4392;47.400;8.062;2023-01-05T19:05:09;11.70;99.90
8711;DHT22;4392;47.400;8.062;2023-01-05T19:07:35;11.70;99.90
8711;DHT22;4392;47.400;8.062;2023-01-05T19:10:02;11.70;99.90
8711;DHT22;4392;47.400;8.062;2023-01-05T19:12:28;11.70;99.90
8711;DHT22;4392;47.400;8.062;2023-01-05T19:14:54;11.70;99.90
8711;DHT22;4392;47.400;8.062;2023-01-05T19:17:19;11.60;99.90